Ashmore, Illinois
Current Conditions -  °F | °C
As of 12:53 PM on Monday 20 Oct 2014 (Local Time) from KMTO Reporting Station
Clear Clear  
Wind Chill: 67°   Ceiling: Unl
Heat Index: 67°   Visibility: 10mi
Dew Point: 47°   Wind: 17mph
Humidity: 49%   Direction: 290°WNW
Pressure: 29.89"   Gusts: NA
Location:  39.53°N, 88.02°W
Report Text: KMTO 201753Z AUTO 29015KT 10SM CLR 19/08 A2989 RMK AO2 SLP120 T01940083 10194 20100 58010
Loading
Personal Weather Stations






























Interactive Weather Map
Tropical Storm Tracking
New forecast layout! Learn more

10-Day Weather Forecast

Advertisements
Track Severe Weather on mobile